<?xml version="1.0" encoding="UTF-8" standalone="no" ?>
<gpx xmlns="http://www.topografix.com/GPX/1/1" xmlns:xsi="http://www.w3.org/2001/XMLSchema-instance" xsi:schemaLocation="http://www.topografix.com/GPX/1/1 http://www.topografix.com/GPX/1/1/gpx.xsd" version="1.1" creator="VisuGPX - https://www.visugpx.com">
  <metadata>
    <name>Saint-Laurent Boucle de la Mairie vers La Montagne</name>
  </metadata>
  <trk>
    <name><![CDATA[12961350-st laurent - st laurent rs1]]></name>
    <trkseg>
      <trkpt lat="46.95912" lon="-0.88689">
        <ele>112</ele>
        <time>2021-04-30T06:18:57Z</time>
      </trkpt>
      <trkpt lat="46.95924" lon="-0.88621">
        <ele>112</ele>
        <time>2021-04-30T06:19:35Z</time>
      </trkpt>
      <trkpt lat="46.95931" lon="-0.88608">
        <ele>112</ele>
        <time>2021-04-30T06:19:44Z</time>
      </trkpt>
      <trkpt lat="46.95953" lon="-0.88611">
        <ele>113</ele>
        <time>2021-04-30T06:20:02Z</time>
      </trkpt>
      <trkpt lat="46.95976" lon="-0.88621">
        <ele>113</ele>
        <time>2021-04-30T06:20:21Z</time>
      </trkpt>
      <trkpt lat="46.95986" lon="-0.88638">
        <ele>113</ele>
        <time>2021-04-30T06:20:34Z</time>
      </trkpt>
      <trkpt lat="46.95996" lon="-0.88655">
        <ele>113</ele>
        <time>2021-04-30T06:20:46Z</time>
      </trkpt>
      <trkpt lat="46.96009" lon="-0.88679">
        <ele>113</ele>
        <time>2021-04-30T06:21:03Z</time>
      </trkpt>
      <trkpt lat="46.96016" lon="-0.88698">
        <ele>113</ele>
        <time>2021-04-30T06:21:14Z</time>
      </trkpt>
      <trkpt lat="46.96043" lon="-0.88687">
        <ele>112</ele>
        <time>2021-04-30T06:21:37Z</time>
      </trkpt>
      <trkpt lat="46.96049" lon="-0.88663">
        <ele>112</ele>
        <time>2021-04-30T06:21:51Z</time>
      </trkpt>
      <trkpt lat="46.9606" lon="-0.88639">
        <ele>113</ele>
        <time>2021-04-30T06:22:07Z</time>
      </trkpt>
      <trkpt lat="46.96071" lon="-0.88614">
        <ele>113</ele>
        <time>2021-04-30T06:22:23Z</time>
      </trkpt>
      <trkpt lat="46.96087" lon="-0.88586">
        <ele>113</ele>
        <time>2021-04-30T06:22:43Z</time>
      </trkpt>
      <trkpt lat="46.96074" lon="-0.88557">
        <ele>115</ele>
        <time>2021-04-30T06:23:02Z</time>
      </trkpt>
      <trkpt lat="46.96062" lon="-0.88521">
        <ele>117</ele>
        <time>2021-04-30T06:23:24Z</time>
      </trkpt>
      <trkpt lat="46.96054" lon="-0.8849">
        <ele>119</ele>
        <time>2021-04-30T06:23:42Z</time>
      </trkpt>
      <trkpt lat="46.96049" lon="-0.88459">
        <ele>121</ele>
        <time>2021-04-30T06:23:59Z</time>
      </trkpt>
      <trkpt lat="46.96037" lon="-0.88432">
        <ele>122</ele>
        <time>2021-04-30T06:24:17Z</time>
      </trkpt>
      <trkpt lat="46.96012" lon="-0.88385">
        <ele>123</ele>
        <time>2021-04-30T06:24:49Z</time>
      </trkpt>
      <trkpt lat="46.95999" lon="-0.88364">
        <ele>123</ele>
        <time>2021-04-30T06:25:05Z</time>
      </trkpt>
      <trkpt lat="46.95983" lon="-0.8833">
        <ele>124</ele>
        <time>2021-04-30T06:25:27Z</time>
      </trkpt>
      <trkpt lat="46.95969" lon="-0.88296">
        <ele>122</ele>
        <time>2021-04-30T06:25:49Z</time>
      </trkpt>
      <trkpt lat="46.95949" lon="-0.8827">
        <ele>120</ele>
        <time>2021-04-30T06:26:11Z</time>
      </trkpt>
      <trkpt lat="46.95939" lon="-0.88244">
        <ele>120</ele>
        <time>2021-04-30T06:26:27Z</time>
      </trkpt>
      <trkpt lat="46.95927" lon="-0.88216">
        <ele>120</ele>
        <time>2021-04-30T06:26:45Z</time>
      </trkpt>
      <trkpt lat="46.95914" lon="-0.88183">
        <ele>119</ele>
        <time>2021-04-30T06:27:06Z</time>
      </trkpt>
      <trkpt lat="46.95903" lon="-0.88165">
        <ele>119</ele>
        <time>2021-04-30T06:27:19Z</time>
      </trkpt>
      <trkpt lat="46.95887" lon="-0.8814">
        <ele>121</ele>
        <time>2021-04-30T06:27:38Z</time>
      </trkpt>
      <trkpt lat="46.9587" lon="-0.88121">
        <ele>122</ele>
        <time>2021-04-30T06:27:55Z</time>
      </trkpt>
      <trkpt lat="46.95853" lon="-0.88112">
        <ele>122</ele>
        <time>2021-04-30T06:28:09Z</time>
      </trkpt>
      <trkpt lat="46.95832" lon="-0.88101">
        <ele>122</ele>
        <time>2021-04-30T06:28:27Z</time>
      </trkpt>
      <trkpt lat="46.95817" lon="-0.88089">
        <ele>122</ele>
        <time>2021-04-30T06:28:41Z</time>
      </trkpt>
      <trkpt lat="46.95809" lon="-0.88075">
        <ele>123</ele>
        <time>2021-04-30T06:28:51Z</time>
      </trkpt>
      <trkpt lat="46.95798" lon="-0.88065">
        <ele>123</ele>
        <time>2021-04-30T06:29:01Z</time>
      </trkpt>
      <trkpt lat="46.95788" lon="-0.88081">
        <ele>121</ele>
        <time>2021-04-30T06:29:13Z</time>
      </trkpt>
      <trkpt lat="46.95761" lon="-0.8811">
        <ele>118</ele>
        <time>2021-04-30T06:29:40Z</time>
      </trkpt>
      <trkpt lat="46.95748" lon="-0.88094">
        <ele>118</ele>
        <time>2021-04-30T06:29:53Z</time>
      </trkpt>
      <trkpt lat="46.95738" lon="-0.88069">
        <ele>120</ele>
        <time>2021-04-30T06:30:09Z</time>
      </trkpt>
      <trkpt lat="46.95726" lon="-0.88049">
        <ele>121</ele>
        <time>2021-04-30T06:30:24Z</time>
      </trkpt>
      <trkpt lat="46.95712" lon="-0.88059">
        <ele>122</ele>
        <time>2021-04-30T06:30:36Z</time>
      </trkpt>
      <trkpt lat="46.95689" lon="-0.88069">
        <ele>124</ele>
        <time>2021-04-30T06:30:55Z</time>
      </trkpt>
      <trkpt lat="46.95672" lon="-0.88079">
        <ele>126</ele>
        <time>2021-04-30T06:31:10Z</time>
      </trkpt>
      <trkpt lat="46.95658" lon="-0.88085">
        <ele>128</ele>
        <time>2021-04-30T06:31:22Z</time>
      </trkpt>
      <trkpt lat="46.95636" lon="-0.88094">
        <ele>130</ele>
        <time>2021-04-30T06:31:40Z</time>
      </trkpt>
      <trkpt lat="46.95623" lon="-0.881">
        <ele>131</ele>
        <time>2021-04-30T06:31:51Z</time>
      </trkpt>
      <trkpt lat="46.95603" lon="-0.88124">
        <ele>132</ele>
        <time>2021-04-30T06:32:12Z</time>
      </trkpt>
      <trkpt lat="46.95584" lon="-0.88148">
        <ele>133</ele>
        <time>2021-04-30T06:32:32Z</time>
      </trkpt>
      <trkpt lat="46.95567" lon="-0.88169">
        <ele>133</ele>
        <time>2021-04-30T06:32:50Z</time>
      </trkpt>
      <trkpt lat="46.95549" lon="-0.88193">
        <ele>132</ele>
        <time>2021-04-30T06:33:09Z</time>
      </trkpt>
      <trkpt lat="46.95537" lon="-0.88215">
        <ele>130</ele>
        <time>2021-04-30T06:33:24Z</time>
      </trkpt>
      <trkpt lat="46.95511" lon="-0.88221">
        <ele>129</ele>
        <time>2021-04-30T06:33:46Z</time>
      </trkpt>
      <trkpt lat="46.95474" lon="-0.88241">
        <ele>127</ele>
        <time>2021-04-30T06:34:17Z</time>
      </trkpt>
      <trkpt lat="46.95445" lon="-0.88258">
        <ele>124</ele>
        <time>2021-04-30T06:34:42Z</time>
      </trkpt>
      <trkpt lat="46.95429" lon="-0.8827">
        <ele>122</ele>
        <time>2021-04-30T06:34:57Z</time>
      </trkpt>
      <trkpt lat="46.95411" lon="-0.88282">
        <ele>120</ele>
        <time>2021-04-30T06:35:12Z</time>
      </trkpt>
      <trkpt lat="46.95387" lon="-0.88298">
        <ele>120</ele>
        <time>2021-04-30T06:35:33Z</time>
      </trkpt>
      <trkpt lat="46.95365" lon="-0.88311">
        <ele>120</ele>
        <time>2021-04-30T06:35:52Z</time>
      </trkpt>
      <trkpt lat="46.9535" lon="-0.88329">
        <ele>118</ele>
        <time>2021-04-30T06:36:08Z</time>
      </trkpt>
      <trkpt lat="46.95334" lon="-0.88344">
        <ele>118</ele>
        <time>2021-04-30T06:36:23Z</time>
      </trkpt>
      <trkpt lat="46.95332" lon="-0.88362">
        <ele>117</ele>
        <time>2021-04-30T06:36:33Z</time>
      </trkpt>
      <trkpt lat="46.95332" lon="-0.88372">
        <ele>116</ele>
        <time>2021-04-30T06:36:39Z</time>
      </trkpt>
      <trkpt lat="46.95305" lon="-0.88384">
        <ele>117</ele>
        <time>2021-04-30T06:37:01Z</time>
      </trkpt>
      <trkpt lat="46.95283" lon="-0.88394">
        <ele>117</ele>
        <time>2021-04-30T06:37:20Z</time>
      </trkpt>
      <trkpt lat="46.95263" lon="-0.88391">
        <ele>119</ele>
        <time>2021-04-30T06:37:36Z</time>
      </trkpt>
      <trkpt lat="46.95236" lon="-0.88386">
        <ele>120</ele>
        <time>2021-04-30T06:37:58Z</time>
      </trkpt>
      <trkpt lat="46.95206" lon="-0.88378">
        <ele>121</ele>
        <time>2021-04-30T06:38:22Z</time>
      </trkpt>
      <trkpt lat="46.95184" lon="-0.88368">
        <ele>121</ele>
        <time>2021-04-30T06:38:40Z</time>
      </trkpt>
      <trkpt lat="46.95162" lon="-0.88359">
        <ele>122</ele>
        <time>2021-04-30T06:38:59Z</time>
      </trkpt>
      <trkpt lat="46.95146" lon="-0.88348">
        <ele>122</ele>
        <time>2021-04-30T06:39:13Z</time>
      </trkpt>
      <trkpt lat="46.95129" lon="-0.88329">
        <ele>122</ele>
        <time>2021-04-30T06:39:30Z</time>
      </trkpt>
      <trkpt lat="46.95109" lon="-0.88306">
        <ele>122</ele>
        <time>2021-04-30T06:39:50Z</time>
      </trkpt>
      <trkpt lat="46.95095" lon="-0.88282">
        <ele>122</ele>
        <time>2021-04-30T06:40:08Z</time>
      </trkpt>
      <trkpt lat="46.95086" lon="-0.88262">
        <ele>123</ele>
        <time>2021-04-30T06:40:21Z</time>
      </trkpt>
      <trkpt lat="46.95075" lon="-0.88232">
        <ele>123</ele>
        <time>2021-04-30T06:40:39Z</time>
      </trkpt>
      <trkpt lat="46.95061" lon="-0.88209">
        <ele>122</ele>
        <time>2021-04-30T06:40:56Z</time>
      </trkpt>
      <trkpt lat="46.95044" lon="-0.8818">
        <ele>122</ele>
        <time>2021-04-30T06:41:17Z</time>
      </trkpt>
      <trkpt lat="46.95028" lon="-0.88164">
        <ele>121</ele>
        <time>2021-04-30T06:41:33Z</time>
      </trkpt>
      <trkpt lat="46.9501" lon="-0.88139">
        <ele>120</ele>
        <time>2021-04-30T06:41:52Z</time>
      </trkpt>
      <trkpt lat="46.94992" lon="-0.88127">
        <ele>119</ele>
        <time>2021-04-30T06:42:08Z</time>
      </trkpt>
      <trkpt lat="46.94966" lon="-0.88139">
        <ele>117</ele>
        <time>2021-04-30T06:42:30Z</time>
      </trkpt>
      <trkpt lat="46.94938" lon="-0.88138">
        <ele>115</ele>
        <time>2021-04-30T06:42:52Z</time>
      </trkpt>
      <trkpt lat="46.94913" lon="-0.88121">
        <ele>115</ele>
        <time>2021-04-30T06:43:15Z</time>
      </trkpt>
      <trkpt lat="46.94892" lon="-0.88094">
        <ele>115</ele>
        <time>2021-04-30T06:43:37Z</time>
      </trkpt>
      <trkpt lat="46.94867" lon="-0.88079">
        <ele>115</ele>
        <time>2021-04-30T06:43:59Z</time>
      </trkpt>
      <trkpt lat="46.94839" lon="-0.88062">
        <ele>116</ele>
        <time>2021-04-30T06:44:23Z</time>
      </trkpt>
      <trkpt lat="46.94823" lon="-0.88068">
        <ele>116</ele>
        <time>2021-04-30T06:44:36Z</time>
      </trkpt>
      <trkpt lat="46.94821" lon="-0.88081">
        <ele>115</ele>
        <time>2021-04-30T06:44:43Z</time>
      </trkpt>
      <trkpt lat="46.94821" lon="-0.88093">
        <ele>116</ele>
        <time>2021-04-30T06:44:50Z</time>
      </trkpt>
      <trkpt lat="46.94824" lon="-0.8811">
        <ele>116</ele>
        <time>2021-04-30T06:44:59Z</time>
      </trkpt>
      <trkpt lat="46.94828" lon="-0.88124">
        <ele>116</ele>
        <time>2021-04-30T06:45:08Z</time>
      </trkpt>
      <trkpt lat="46.94832" lon="-0.88143">
        <ele>116</ele>
        <time>2021-04-30T06:45:19Z</time>
      </trkpt>
      <trkpt lat="46.94832" lon="-0.8816">
        <ele>117</ele>
        <time>2021-04-30T06:45:28Z</time>
      </trkpt>
      <trkpt lat="46.94826" lon="-0.88177">
        <ele>118</ele>
        <time>2021-04-30T06:45:38Z</time>
      </trkpt>
      <trkpt lat="46.94816" lon="-0.88189">
        <ele>119</ele>
        <time>2021-04-30T06:45:49Z</time>
      </trkpt>
      <trkpt lat="46.94817" lon="-0.88202">
        <ele>121</ele>
        <time>2021-04-30T06:45:56Z</time>
      </trkpt>
      <trkpt lat="46.9482" lon="-0.88213">
        <ele>121</ele>
        <time>2021-04-30T06:46:02Z</time>
      </trkpt>
      <trkpt lat="46.94839" lon="-0.88216">
        <ele>121</ele>
        <time>2021-04-30T06:46:18Z</time>
      </trkpt>
      <trkpt lat="46.94841" lon="-0.88227">
        <ele>121</ele>
        <time>2021-04-30T06:46:24Z</time>
      </trkpt>
      <trkpt lat="46.94842" lon="-0.88245">
        <ele>123</ele>
        <time>2021-04-30T06:46:34Z</time>
      </trkpt>
      <trkpt lat="46.9485" lon="-0.88269">
        <ele>125</ele>
        <time>2021-04-30T06:46:48Z</time>
      </trkpt>
      <trkpt lat="46.94859" lon="-0.88288">
        <ele>127</ele>
        <time>2021-04-30T06:47:01Z</time>
      </trkpt>
      <trkpt lat="46.94886" lon="-0.88302">
        <ele>127</ele>
        <time>2021-04-30T06:47:24Z</time>
      </trkpt>
      <trkpt lat="46.949" lon="-0.88317">
        <ele>129</ele>
        <time>2021-04-30T06:47:38Z</time>
      </trkpt>
      <trkpt lat="46.94911" lon="-0.88327">
        <ele>131</ele>
        <time>2021-04-30T06:47:48Z</time>
      </trkpt>
      <trkpt lat="46.9489" lon="-0.8832">
        <ele>130</ele>
        <time>2021-04-30T06:48:05Z</time>
      </trkpt>
      <trkpt lat="46.94878" lon="-0.88316">
        <ele>130</ele>
        <time>2021-04-30T06:48:15Z</time>
      </trkpt>
      <trkpt lat="46.94872" lon="-0.88315">
        <ele>130</ele>
        <time>2021-04-30T06:48:20Z</time>
      </trkpt>
      <trkpt lat="46.94863" lon="-0.88329">
        <ele>133</ele>
        <time>2021-04-30T06:48:31Z</time>
      </trkpt>
      <trkpt lat="46.94855" lon="-0.88339">
        <ele>134</ele>
        <time>2021-04-30T06:48:39Z</time>
      </trkpt>
      <trkpt lat="46.94848" lon="-0.8835">
        <ele>135</ele>
        <time>2021-04-30T06:48:47Z</time>
      </trkpt>
      <trkpt lat="46.94842" lon="-0.88357">
        <ele>135</ele>
        <time>2021-04-30T06:48:53Z</time>
      </trkpt>
      <trkpt lat="46.94837" lon="-0.88374">
        <ele>136</ele>
        <time>2021-04-30T06:49:04Z</time>
      </trkpt>
      <trkpt lat="46.94841" lon="-0.88384">
        <ele>137</ele>
        <time>2021-04-30T06:49:10Z</time>
      </trkpt>
      <trkpt lat="46.94857" lon="-0.88393">
        <ele>138</ele>
        <time>2021-04-30T06:49:24Z</time>
      </trkpt>
      <trkpt lat="46.94886" lon="-0.88384">
        <ele>137</ele>
        <time>2021-04-30T06:49:47Z</time>
      </trkpt>
      <trkpt lat="46.94914" lon="-0.88385">
        <ele>138</ele>
        <time>2021-04-30T06:50:10Z</time>
      </trkpt>
      <trkpt lat="46.94938" lon="-0.88395">
        <ele>136</ele>
        <time>2021-04-30T06:50:30Z</time>
      </trkpt>
      <trkpt lat="46.94954" lon="-0.88414">
        <ele>136</ele>
        <time>2021-04-30T06:50:46Z</time>
      </trkpt>
      <trkpt lat="46.94979" lon="-0.88423">
        <ele>134</ele>
        <time>2021-04-30T06:51:07Z</time>
      </trkpt>
      <trkpt lat="46.94987" lon="-0.88436">
        <ele>134</ele>
        <time>2021-04-30T06:51:16Z</time>
      </trkpt>
      <trkpt lat="46.94989" lon="-0.88458">
        <ele>136</ele>
        <time>2021-04-30T06:51:29Z</time>
      </trkpt>
      <trkpt lat="46.94991" lon="-0.88476">
        <ele>137</ele>
        <time>2021-04-30T06:51:39Z</time>
      </trkpt>
      <trkpt lat="46.94995" lon="-0.88495">
        <ele>139</ele>
        <time>2021-04-30T06:51:49Z</time>
      </trkpt>
      <trkpt lat="46.95006" lon="-0.88519">
        <ele>140</ele>
        <time>2021-04-30T06:52:05Z</time>
      </trkpt>
      <trkpt lat="46.95025" lon="-0.88541">
        <ele>138</ele>
        <time>2021-04-30T06:52:25Z</time>
      </trkpt>
      <trkpt lat="46.95041" lon="-0.88576">
        <ele>138</ele>
        <time>2021-04-30T06:52:48Z</time>
      </trkpt>
      <trkpt lat="46.95058" lon="-0.88598">
        <ele>138</ele>
        <time>2021-04-30T06:53:06Z</time>
      </trkpt>
      <trkpt lat="46.95068" lon="-0.88625">
        <ele>139</ele>
        <time>2021-04-30T06:53:23Z</time>
      </trkpt>
      <trkpt lat="46.95075" lon="-0.88641">
        <ele>140</ele>
        <time>2021-04-30T06:53:33Z</time>
      </trkpt>
      <trkpt lat="46.95094" lon="-0.88664">
        <ele>141</ele>
        <time>2021-04-30T06:53:53Z</time>
      </trkpt>
      <trkpt lat="46.95105" lon="-0.88681">
        <ele>140</ele>
        <time>2021-04-30T06:54:05Z</time>
      </trkpt>
      <trkpt lat="46.95109" lon="-0.88697">
        <ele>141</ele>
        <time>2021-04-30T06:54:15Z</time>
      </trkpt>
      <trkpt lat="46.95109" lon="-0.88717">
        <ele>143</ele>
        <time>2021-04-30T06:54:26Z</time>
      </trkpt>
      <trkpt lat="46.9511" lon="-0.88736">
        <ele>144</ele>
        <time>2021-04-30T06:54:36Z</time>
      </trkpt>
      <trkpt lat="46.95109" lon="-0.88749">
        <ele>146</ele>
        <time>2021-04-30T06:54:43Z</time>
      </trkpt>
      <trkpt lat="46.95108" lon="-0.88762">
        <ele>146</ele>
        <time>2021-04-30T06:54:50Z</time>
      </trkpt>
      <trkpt lat="46.95106" lon="-0.88776">
        <ele>147</ele>
        <time>2021-04-30T06:54:58Z</time>
      </trkpt>
      <trkpt lat="46.95118" lon="-0.88787">
        <ele>147</ele>
        <time>2021-04-30T06:55:10Z</time>
      </trkpt>
      <trkpt lat="46.95121" lon="-0.88798">
        <ele>148</ele>
        <time>2021-04-30T06:55:16Z</time>
      </trkpt>
      <trkpt lat="46.95131" lon="-0.88807">
        <ele>148</ele>
        <time>2021-04-30T06:55:25Z</time>
      </trkpt>
      <trkpt lat="46.95144" lon="-0.88786">
        <ele>146</ele>
        <time>2021-04-30T06:55:41Z</time>
      </trkpt>
      <trkpt lat="46.95162" lon="-0.88769">
        <ele>143</ele>
        <time>2021-04-30T06:55:58Z</time>
      </trkpt>
      <trkpt lat="46.9519" lon="-0.88771">
        <ele>142</ele>
        <time>2021-04-30T06:56:21Z</time>
      </trkpt>
      <trkpt lat="46.95215" lon="-0.88783">
        <ele>142</ele>
        <time>2021-04-30T06:56:42Z</time>
      </trkpt>
      <trkpt lat="46.95229" lon="-0.88801">
        <ele>143</ele>
        <time>2021-04-30T06:56:57Z</time>
      </trkpt>
      <trkpt lat="46.95247" lon="-0.88828">
        <ele>144</ele>
        <time>2021-04-30T06:57:17Z</time>
      </trkpt>
      <trkpt lat="46.95261" lon="-0.88844">
        <ele>142</ele>
        <time>2021-04-30T06:57:31Z</time>
      </trkpt>
      <trkpt lat="46.95274" lon="-0.88864">
        <ele>140</ele>
        <time>2021-04-30T06:57:46Z</time>
      </trkpt>
      <trkpt lat="46.95283" lon="-0.88848">
        <ele>140</ele>
        <time>2021-04-30T06:57:58Z</time>
      </trkpt>
      <trkpt lat="46.95269" lon="-0.88825">
        <ele>142</ele>
        <time>2021-04-30T06:58:15Z</time>
      </trkpt>
      <trkpt lat="46.95259" lon="-0.88802">
        <ele>141</ele>
        <time>2021-04-30T06:58:30Z</time>
      </trkpt>
      <trkpt lat="46.95248" lon="-0.88782">
        <ele>141</ele>
        <time>2021-04-30T06:58:44Z</time>
      </trkpt>
      <trkpt lat="46.95237" lon="-0.88756">
        <ele>140</ele>
        <time>2021-04-30T06:59:00Z</time>
      </trkpt>
      <trkpt lat="46.95225" lon="-0.88728">
        <ele>137</ele>
        <time>2021-04-30T06:59:18Z</time>
      </trkpt>
      <trkpt lat="46.95205" lon="-0.88692">
        <ele>132</ele>
        <time>2021-04-30T06:59:44Z</time>
      </trkpt>
      <trkpt lat="46.95193" lon="-0.88682">
        <ele>130</ele>
        <time>2021-04-30T06:59:55Z</time>
      </trkpt>
      <trkpt lat="46.95195" lon="-0.88661">
        <ele>127</ele>
        <time>2021-04-30T07:00:06Z</time>
      </trkpt>
      <trkpt lat="46.95229" lon="-0.88658">
        <ele>127</ele>
        <time>2021-04-30T07:00:34Z</time>
      </trkpt>
      <trkpt lat="46.95259" lon="-0.88646">
        <ele>127</ele>
        <time>2021-04-30T07:00:59Z</time>
      </trkpt>
      <trkpt lat="46.9528" lon="-0.88629">
        <ele>126</ele>
        <time>2021-04-30T07:01:18Z</time>
      </trkpt>
      <trkpt lat="46.95295" lon="-0.88605">
        <ele>123</ele>
        <time>2021-04-30T07:01:36Z</time>
      </trkpt>
      <trkpt lat="46.95321" lon="-0.88586">
        <ele>121</ele>
        <time>2021-04-30T07:01:59Z</time>
      </trkpt>
      <trkpt lat="46.95346" lon="-0.88574">
        <ele>120</ele>
        <time>2021-04-30T07:02:20Z</time>
      </trkpt>
      <trkpt lat="46.95383" lon="-0.88561">
        <ele>119</ele>
        <time>2021-04-30T07:02:50Z</time>
      </trkpt>
      <trkpt lat="46.95419" lon="-0.88565">
        <ele>120</ele>
        <time>2021-04-30T07:03:19Z</time>
      </trkpt>
      <trkpt lat="46.95455" lon="-0.8858">
        <ele>119</ele>
        <time>2021-04-30T07:03:49Z</time>
      </trkpt>
      <trkpt lat="46.95487" lon="-0.88594">
        <ele>119</ele>
        <time>2021-04-30T07:04:16Z</time>
      </trkpt>
      <trkpt lat="46.95507" lon="-0.88619">
        <ele>120</ele>
        <time>2021-04-30T07:04:37Z</time>
      </trkpt>
      <trkpt lat="46.95503" lon="-0.88648">
        <ele>122</ele>
        <time>2021-04-30T07:04:53Z</time>
      </trkpt>
      <trkpt lat="46.95429" lon="-0.88742">
        <ele>127</ele>
        <time>2021-04-30T07:06:12Z</time>
      </trkpt>
      <trkpt lat="46.95375" lon="-0.8879">
        <ele>130</ele>
        <time>2021-04-30T07:07:02Z</time>
      </trkpt>
      <trkpt lat="46.95343" lon="-0.88818">
        <ele>134</ele>
        <time>2021-04-30T07:07:32Z</time>
      </trkpt>
      <trkpt lat="46.95316" lon="-0.8887">
        <ele>136</ele>
        <time>2021-04-30T07:08:08Z</time>
      </trkpt>
      <trkpt lat="46.95303" lon="-0.88894">
        <ele>136</ele>
        <time>2021-04-30T07:08:24Z</time>
      </trkpt>
      <trkpt lat="46.95355" lon="-0.88908">
        <ele>133</ele>
        <time>2021-04-30T07:09:07Z</time>
      </trkpt>
      <trkpt lat="46.95392" lon="-0.88926">
        <ele>134</ele>
        <time>2021-04-30T07:09:38Z</time>
      </trkpt>
      <trkpt lat="46.95424" lon="-0.88942">
        <ele>135</ele>
        <time>2021-04-30T07:10:05Z</time>
      </trkpt>
      <trkpt lat="46.95443" lon="-0.88962">
        <ele>136</ele>
        <time>2021-04-30T07:10:24Z</time>
      </trkpt>
      <trkpt lat="46.95428" lon="-0.88986">
        <ele>138</ele>
        <time>2021-04-30T07:10:42Z</time>
      </trkpt>
      <trkpt lat="46.95407" lon="-0.89005">
        <ele>139</ele>
        <time>2021-04-30T07:11:01Z</time>
      </trkpt>
      <trkpt lat="46.95392" lon="-0.89013">
        <ele>138</ele>
        <time>2021-04-30T07:11:14Z</time>
      </trkpt>
      <trkpt lat="46.95382" lon="-0.88998">
        <ele>137</ele>
        <time>2021-04-30T07:11:26Z</time>
      </trkpt>
      <trkpt lat="46.9535" lon="-0.89028">
        <ele>137</ele>
        <time>2021-04-30T07:11:56Z</time>
      </trkpt>
      <trkpt lat="46.95329" lon="-0.89052">
        <ele>139</ele>
        <time>2021-04-30T07:12:17Z</time>
      </trkpt>
      <trkpt lat="46.95312" lon="-0.89081">
        <ele>142</ele>
        <time>2021-04-30T07:12:38Z</time>
      </trkpt>
      <trkpt lat="46.95293" lon="-0.89135">
        <ele>145</ele>
        <time>2021-04-30T07:13:11Z</time>
      </trkpt>
      <trkpt lat="46.95291" lon="-0.89163">
        <ele>147</ele>
        <time>2021-04-30T07:13:27Z</time>
      </trkpt>
      <trkpt lat="46.95287" lon="-0.8921">
        <ele>148</ele>
        <time>2021-04-30T07:13:53Z</time>
      </trkpt>
      <trkpt lat="46.95277" lon="-0.89228">
        <ele>148</ele>
        <time>2021-04-30T07:14:05Z</time>
      </trkpt>
      <trkpt lat="46.95263" lon="-0.89259">
        <ele>148</ele>
        <time>2021-04-30T07:14:26Z</time>
      </trkpt>
      <trkpt lat="46.95251" lon="-0.89277">
        <ele>149</ele>
        <time>2021-04-30T07:14:39Z</time>
      </trkpt>
      <trkpt lat="46.95231" lon="-0.8929">
        <ele>151</ele>
        <time>2021-04-30T07:14:57Z</time>
      </trkpt>
      <trkpt lat="46.95218" lon="-0.89297">
        <ele>152</ele>
        <time>2021-04-30T07:15:08Z</time>
      </trkpt>
      <trkpt lat="46.95229" lon="-0.89333">
        <ele>152</ele>
        <time>2021-04-30T07:15:30Z</time>
      </trkpt>
      <trkpt lat="46.95214" lon="-0.89335">
        <ele>153</ele>
        <time>2021-04-30T07:15:42Z</time>
      </trkpt>
      <trkpt lat="46.9522" lon="-0.89356">
        <ele>152</ele>
        <time>2021-04-30T07:15:54Z</time>
      </trkpt>
      <trkpt lat="46.9523" lon="-0.89391">
        <ele>152</ele>
        <time>2021-04-30T07:16:15Z</time>
      </trkpt>
      <trkpt lat="46.95242" lon="-0.89422">
        <ele>152</ele>
        <time>2021-04-30T07:16:34Z</time>
      </trkpt>
      <trkpt lat="46.95261" lon="-0.89458">
        <ele>152</ele>
        <time>2021-04-30T07:16:59Z</time>
      </trkpt>
      <trkpt lat="46.95272" lon="-0.89493">
        <ele>153</ele>
        <time>2021-04-30T07:17:20Z</time>
      </trkpt>
      <trkpt lat="46.95287" lon="-0.89542">
        <ele>153</ele>
        <time>2021-04-30T07:17:50Z</time>
      </trkpt>
      <trkpt lat="46.9531" lon="-0.89593">
        <ele>152</ele>
        <time>2021-04-30T07:18:23Z</time>
      </trkpt>
      <trkpt lat="46.95333" lon="-0.89621">
        <ele>152</ele>
        <time>2021-04-30T07:18:47Z</time>
      </trkpt>
      <trkpt lat="46.95361" lon="-0.89658">
        <ele>150</ele>
        <time>2021-04-30T07:19:17Z</time>
      </trkpt>
      <trkpt lat="46.95395" lon="-0.89686">
        <ele>149</ele>
        <time>2021-04-30T07:19:48Z</time>
      </trkpt>
      <trkpt lat="46.95415" lon="-0.89709">
        <ele>147</ele>
        <time>2021-04-30T07:20:09Z</time>
      </trkpt>
      <trkpt lat="46.95454" lon="-0.89737">
        <ele>145</ele>
        <time>2021-04-30T07:20:44Z</time>
      </trkpt>
      <trkpt lat="46.95428" lon="-0.89735">
        <ele>145</ele>
        <time>2021-04-30T07:21:04Z</time>
      </trkpt>
      <trkpt lat="46.95417" lon="-0.89762">
        <ele>143</ele>
        <time>2021-04-30T07:21:22Z</time>
      </trkpt>
      <trkpt lat="46.9544" lon="-0.89778">
        <ele>143</ele>
        <time>2021-04-30T07:21:42Z</time>
      </trkpt>
      <trkpt lat="46.95456" lon="-0.89805">
        <ele>142</ele>
        <time>2021-04-30T07:22:01Z</time>
      </trkpt>
      <trkpt lat="46.95488" lon="-0.89828">
        <ele>140</ele>
        <time>2021-04-30T07:22:30Z</time>
      </trkpt>
      <trkpt lat="46.95507" lon="-0.89851">
        <ele>141</ele>
        <time>2021-04-30T07:22:50Z</time>
      </trkpt>
      <trkpt lat="46.95559" lon="-0.89856">
        <ele>139</ele>
        <time>2021-04-30T07:23:31Z</time>
      </trkpt>
      <trkpt lat="46.95597" lon="-0.89849">
        <ele>139</ele>
        <time>2021-04-30T07:24:02Z</time>
      </trkpt>
      <trkpt lat="46.95627" lon="-0.89841">
        <ele>139</ele>
        <time>2021-04-30T07:24:27Z</time>
      </trkpt>
      <trkpt lat="46.9566" lon="-0.8984">
        <ele>139</ele>
        <time>2021-04-30T07:24:53Z</time>
      </trkpt>
      <trkpt lat="46.95663" lon="-0.89855">
        <ele>139</ele>
        <time>2021-04-30T07:25:02Z</time>
      </trkpt>
      <trkpt lat="46.95664" lon="-0.89871">
        <ele>139</ele>
        <time>2021-04-30T07:25:10Z</time>
      </trkpt>
      <trkpt lat="46.95666" lon="-0.8989">
        <ele>138</ele>
        <time>2021-04-30T07:25:21Z</time>
      </trkpt>
      <trkpt lat="46.95672" lon="-0.89908">
        <ele>138</ele>
        <time>2021-04-30T07:25:32Z</time>
      </trkpt>
      <trkpt lat="46.95698" lon="-0.89924">
        <ele>137</ele>
        <time>2021-04-30T07:25:54Z</time>
      </trkpt>
      <trkpt lat="46.95725" lon="-0.89943">
        <ele>137</ele>
        <time>2021-04-30T07:26:18Z</time>
      </trkpt>
      <trkpt lat="46.95746" lon="-0.89963">
        <ele>136</ele>
        <time>2021-04-30T07:26:38Z</time>
      </trkpt>
      <trkpt lat="46.95776" lon="-0.89982">
        <ele>137</ele>
        <time>2021-04-30T07:27:05Z</time>
      </trkpt>
      <trkpt lat="46.95805" lon="-0.89992">
        <ele>139</ele>
        <time>2021-04-30T07:27:28Z</time>
      </trkpt>
      <trkpt lat="46.95841" lon="-0.89989">
        <ele>140</ele>
        <time>2021-04-30T07:27:57Z</time>
      </trkpt>
      <trkpt lat="46.95865" lon="-0.89974">
        <ele>139</ele>
        <time>2021-04-30T07:28:18Z</time>
      </trkpt>
      <trkpt lat="46.95906" lon="-0.89966">
        <ele>140</ele>
        <time>2021-04-30T07:28:51Z</time>
      </trkpt>
      <trkpt lat="46.95917" lon="-0.89984">
        <ele>141</ele>
        <time>2021-04-30T07:29:05Z</time>
      </trkpt>
      <trkpt lat="46.95928" lon="-0.89997">
        <ele>141</ele>
        <time>2021-04-30T07:29:16Z</time>
      </trkpt>
      <trkpt lat="46.95953" lon="-0.90023">
        <ele>143</ele>
        <time>2021-04-30T07:29:40Z</time>
      </trkpt>
      <trkpt lat="46.95983" lon="-0.9004">
        <ele>143</ele>
        <time>2021-04-30T07:30:06Z</time>
      </trkpt>
      <trkpt lat="46.96016" lon="-0.90049">
        <ele>143</ele>
        <time>2021-04-30T07:30:33Z</time>
      </trkpt>
      <trkpt lat="46.96047" lon="-0.9005">
        <ele>142</ele>
        <time>2021-04-30T07:30:58Z</time>
      </trkpt>
      <trkpt lat="46.96079" lon="-0.90047">
        <ele>141</ele>
        <time>2021-04-30T07:31:23Z</time>
      </trkpt>
      <trkpt lat="46.96104" lon="-0.90053">
        <ele>140</ele>
        <time>2021-04-30T07:31:44Z</time>
      </trkpt>
      <trkpt lat="46.96135" lon="-0.90064">
        <ele>138</ele>
        <time>2021-04-30T07:32:09Z</time>
      </trkpt>
      <trkpt lat="46.96161" lon="-0.90077">
        <ele>136</ele>
        <time>2021-04-30T07:32:31Z</time>
      </trkpt>
      <trkpt lat="46.96188" lon="-0.90087">
        <ele>133</ele>
        <time>2021-04-30T07:32:54Z</time>
      </trkpt>
      <trkpt lat="46.96199" lon="-0.90067">
        <ele>133</ele>
        <time>2021-04-30T07:33:08Z</time>
      </trkpt>
      <trkpt lat="46.96196" lon="-0.90047">
        <ele>133</ele>
        <time>2021-04-30T07:33:19Z</time>
      </trkpt>
      <trkpt lat="46.96225" lon="-0.90049">
        <ele>131</ele>
        <time>2021-04-30T07:33:42Z</time>
      </trkpt>
      <trkpt lat="46.96251" lon="-0.90065">
        <ele>129</ele>
        <time>2021-04-30T07:34:05Z</time>
      </trkpt>
      <trkpt lat="46.96284" lon="-0.90072">
        <ele>124</ele>
        <time>2021-04-30T07:34:31Z</time>
      </trkpt>
      <trkpt lat="46.96321" lon="-0.90054">
        <ele>118</ele>
        <time>2021-04-30T07:35:03Z</time>
      </trkpt>
      <trkpt lat="46.96391" lon="-0.90012">
        <ele>110</ele>
        <time>2021-04-30T07:36:03Z</time>
      </trkpt>
      <trkpt lat="46.96383" lon="-0.89968">
        <ele>110</ele>
        <time>2021-04-30T07:36:28Z</time>
      </trkpt>
      <trkpt lat="46.96374" lon="-0.89948">
        <ele>111</ele>
        <time>2021-04-30T07:36:41Z</time>
      </trkpt>
      <trkpt lat="46.96369" lon="-0.89926">
        <ele>111</ele>
        <time>2021-04-30T07:36:54Z</time>
      </trkpt>
      <trkpt lat="46.9636" lon="-0.899">
        <ele>112</ele>
        <time>2021-04-30T07:37:10Z</time>
      </trkpt>
      <trkpt lat="46.96352" lon="-0.89865">
        <ele>113</ele>
        <time>2021-04-30T07:37:30Z</time>
      </trkpt>
      <trkpt lat="46.96344" lon="-0.89834">
        <ele>114</ele>
        <time>2021-04-30T07:37:48Z</time>
      </trkpt>
      <trkpt lat="46.96336" lon="-0.89813">
        <ele>113</ele>
        <time>2021-04-30T07:38:01Z</time>
      </trkpt>
      <trkpt lat="46.96328" lon="-0.898">
        <ele>114</ele>
        <time>2021-04-30T07:38:11Z</time>
      </trkpt>
      <trkpt lat="46.96315" lon="-0.89777">
        <ele>114</ele>
        <time>2021-04-30T07:38:27Z</time>
      </trkpt>
      <trkpt lat="46.96328" lon="-0.89748">
        <ele>111</ele>
        <time>2021-04-30T07:38:46Z</time>
      </trkpt>
      <trkpt lat="46.96338" lon="-0.89729">
        <ele>113</ele>
        <time>2021-04-30T07:38:59Z</time>
      </trkpt>
      <trkpt lat="46.96347" lon="-0.89705">
        <ele>116</ele>
        <time>2021-04-30T07:39:14Z</time>
      </trkpt>
      <trkpt lat="46.96347" lon="-0.89685">
        <ele>118</ele>
        <time>2021-04-30T07:39:25Z</time>
      </trkpt>
      <trkpt lat="46.96338" lon="-0.8967">
        <ele>118</ele>
        <time>2021-04-30T07:39:36Z</time>
      </trkpt>
      <trkpt lat="46.9633" lon="-0.89654">
        <ele>119</ele>
        <time>2021-04-30T07:39:47Z</time>
      </trkpt>
      <trkpt lat="46.96313" lon="-0.89643">
        <ele>118</ele>
        <time>2021-04-30T07:40:02Z</time>
      </trkpt>
      <trkpt lat="46.96227" lon="-0.8957">
        <ele>115</ele>
        <time>2021-04-30T07:41:21Z</time>
      </trkpt>
      <trkpt lat="46.96222" lon="-0.89556">
        <ele>116</ele>
        <time>2021-04-30T07:41:30Z</time>
      </trkpt>
      <trkpt lat="46.96229" lon="-0.89542">
        <ele>116</ele>
        <time>2021-04-30T07:41:39Z</time>
      </trkpt>
      <trkpt lat="46.96248" lon="-0.89524">
        <ele>117</ele>
        <time>2021-04-30T07:41:57Z</time>
      </trkpt>
      <trkpt lat="46.96265" lon="-0.89506">
        <ele>119</ele>
        <time>2021-04-30T07:42:14Z</time>
      </trkpt>
      <trkpt lat="46.96291" lon="-0.89489">
        <ele>120</ele>
        <time>2021-04-30T07:42:37Z</time>
      </trkpt>
      <trkpt lat="46.96316" lon="-0.89468">
        <ele>119</ele>
        <time>2021-04-30T07:43:00Z</time>
      </trkpt>
      <trkpt lat="46.96333" lon="-0.89446">
        <ele>118</ele>
        <time>2021-04-30T07:43:18Z</time>
      </trkpt>
      <trkpt lat="46.96329" lon="-0.89424">
        <ele>115</ele>
        <time>2021-04-30T07:43:31Z</time>
      </trkpt>
      <trkpt lat="46.96328" lon="-0.89389">
        <ele>113</ele>
        <time>2021-04-30T07:43:50Z</time>
      </trkpt>
      <trkpt lat="46.96324" lon="-0.89351">
        <ele>112</ele>
        <time>2021-04-30T07:44:11Z</time>
      </trkpt>
      <trkpt lat="46.96321" lon="-0.89302">
        <ele>110</ele>
        <time>2021-04-30T07:44:38Z</time>
      </trkpt>
      <trkpt lat="46.96322" lon="-0.89264">
        <ele>109</ele>
        <time>2021-04-30T07:44:59Z</time>
      </trkpt>
      <trkpt lat="46.96321" lon="-0.8924">
        <ele>109</ele>
        <time>2021-04-30T07:45:12Z</time>
      </trkpt>
      <trkpt lat="46.96323" lon="-0.89215">
        <ele>110</ele>
        <time>2021-04-30T07:45:25Z</time>
      </trkpt>
      <trkpt lat="46.96322" lon="-0.892">
        <ele>110</ele>
        <time>2021-04-30T07:45:34Z</time>
      </trkpt>
      <trkpt lat="46.96322" lon="-0.8918">
        <ele>111</ele>
        <time>2021-04-30T07:45:45Z</time>
      </trkpt>
      <trkpt lat="46.96322" lon="-0.89158">
        <ele>111</ele>
        <time>2021-04-30T07:45:57Z</time>
      </trkpt>
      <trkpt lat="46.96324" lon="-0.89143">
        <ele>111</ele>
        <time>2021-04-30T07:46:05Z</time>
      </trkpt>
      <trkpt lat="46.96344" lon="-0.89127">
        <ele>112</ele>
        <time>2021-04-30T07:46:23Z</time>
      </trkpt>
      <trkpt lat="46.9635" lon="-0.89107">
        <ele>113</ele>
        <time>2021-04-30T07:46:35Z</time>
      </trkpt>
      <trkpt lat="46.96346" lon="-0.89079">
        <ele>113</ele>
        <time>2021-04-30T07:46:51Z</time>
      </trkpt>
      <trkpt lat="46.96334" lon="-0.89053">
        <ele>112</ele>
        <time>2021-04-30T07:47:08Z</time>
      </trkpt>
      <trkpt lat="46.96326" lon="-0.89021">
        <ele>113</ele>
        <time>2021-04-30T07:47:27Z</time>
      </trkpt>
      <trkpt lat="46.96318" lon="-0.88992">
        <ele>113</ele>
        <time>2021-04-30T07:47:44Z</time>
      </trkpt>
      <trkpt lat="46.96308" lon="-0.8897">
        <ele>114</ele>
        <time>2021-04-30T07:47:58Z</time>
      </trkpt>
      <trkpt lat="46.96292" lon="-0.88945">
        <ele>114</ele>
        <time>2021-04-30T07:48:17Z</time>
      </trkpt>
      <trkpt lat="46.96276" lon="-0.88923">
        <ele>114</ele>
        <time>2021-04-30T07:48:34Z</time>
      </trkpt>
      <trkpt lat="46.96265" lon="-0.88899">
        <ele>115</ele>
        <time>2021-04-30T07:48:50Z</time>
      </trkpt>
      <trkpt lat="46.96246" lon="-0.88871">
        <ele>116</ele>
        <time>2021-04-30T07:49:12Z</time>
      </trkpt>
      <trkpt lat="46.96221" lon="-0.88849">
        <ele>115</ele>
        <time>2021-04-30T07:49:35Z</time>
      </trkpt>
      <trkpt lat="46.96202" lon="-0.88832">
        <ele>114</ele>
        <time>2021-04-30T07:49:53Z</time>
      </trkpt>
      <trkpt lat="46.9619" lon="-0.8881">
        <ele>114</ele>
        <time>2021-04-30T07:50:08Z</time>
      </trkpt>
      <trkpt lat="46.96161" lon="-0.88785">
        <ele>112</ele>
        <time>2021-04-30T07:50:35Z</time>
      </trkpt>
      <trkpt lat="46.96133" lon="-0.88772">
        <ele>112</ele>
        <time>2021-04-30T07:50:59Z</time>
      </trkpt>
      <trkpt lat="46.96109" lon="-0.88758">
        <ele>112</ele>
        <time>2021-04-30T07:51:19Z</time>
      </trkpt>
      <trkpt lat="46.96081" lon="-0.8874">
        <ele>112</ele>
        <time>2021-04-30T07:51:44Z</time>
      </trkpt>
      <trkpt lat="46.9606" lon="-0.88728">
        <ele>112</ele>
        <time>2021-04-30T07:52:02Z</time>
      </trkpt>
      <trkpt lat="46.96036" lon="-0.88719">
        <ele>113</ele>
        <time>2021-04-30T07:52:22Z</time>
      </trkpt>
      <trkpt lat="46.96013" lon="-0.8871">
        <ele>113</ele>
        <time>2021-04-30T07:52:41Z</time>
      </trkpt>
      <trkpt lat="46.95967" lon="-0.88705">
        <ele>113</ele>
        <time>2021-04-30T07:53:18Z</time>
      </trkpt>
    </trkseg>
  </trk>
</gpx>